sensor_id;sensor_type;location;lat;lon;timestamp;pressure;altitude;pressure_sealevel;temperature;humidity
29879;BME280;16752;53.364;-1.488;2023-03-26T00:02:13;99102.28;;;15.09;47.03
29879;BME280;16752;53.364;-1.488;2023-03-26T00:04:57;99103.84;;;15.52;46.14
29879;BME280;16752;53.364;-1.488;2023-03-26T00:07:41;99101.88;;;15.54;46.09
29879;BME280;16752;53.364;-1.488;2023-03-26T00:10:25;99103.94;;;14.67;48.35
29879;BME280;16752;53.364;-1.488;2023-03-26T00:13:10;99172.53;;;15.60;47.27
29879;BME280;16752;53.364;-1.488;2023-03-26T00:15:54;99123.38;;;15.67;46.37
29879;BME280;16752;53.364;-1.488;2023-03-26T00:18:42;99091.28;;;15.21;47.20
29879;BME280;16752;53.364;-1.488;2023-03-26T00:21:28;99177.84;;;16.01;46.66
29879;BME280;16752;53.364;-1.488;2023-03-26T00:24:13;99106.00;;;15.48;46.59
29879;BME280;16752;53.364;-1.488;2023-03-26T00:27:00;99122.94;;;15.29;47.73
29879;BME280;16752;53.364;-1.488;2023-03-26T00:29:44;99165.84;;;16.06;46.38
29879;BME280;16752;53.364;-1.488;2023-03-26T00:32:31;99046.09;;;15.33;46.20
29879;BME280;16752;53.364;-1.488;2023-03-26T00:35:15;99039.97;;;15.16;46.88
29879;BME280;16752;53.364;-1.488;2023-03-26T00:37:59;99021.88;;;14.71;47.51
29879;BME280;16752;53.364;-1.488;2023-03-26T00:40:44;99104.03;;;15.50;46.31
29879;BME280;16752;53.364;-1.488;2023-03-26T00:43:32;99095.72;;;15.21;46.81
29879;BME280;16752;53.364;-1.488;2023-03-26T00:46:17;99110.28;;;15.49;46.43
29879;BME280;16752;53.364;-1.488;2023-03-26T00:49:01;99064.84;;;15.13;46.55
29879;BME280;16752;53.364;-1.488;2023-03-26T00:51:46;99100.94;;;15.63;45.77
29879;BME280;16752;53.364;-1.488;2023-03-26T00:54:30;99121.53;;;14.59;48.19
29879;BME280;16752;53.364;-1.488;2023-03-26T00:57:14;99058.47;;;14.74;47.06
29879;BME280;16752;53.364;-1.488;2023-03-26T00:59:59;99127.16;;;14.98;47.62
29879;BME280;16752;53.364;-1.488;2023-03-26T01:02:52;99178.53;;;15.36;47.51
29879;BME280;16752;53.364;-1.488;2023-03-26T01:05:50;99154.06;;;15.76;46.43
29879;BME280;16752;53.364;-1.488;2023-03-26T01:09:03;99168.84;;;15.53;46.92
29879;BME280;16752;53.364;-1.488;2023-03-26T01:11:54;99112.88;;;15.25;46.97
29879;BME280;16752;53.364;-1.488;2023-03-26T01:14:41;99120.56;;;15.69;46.26
29879;BME280;16752;53.364;-1.488;2023-03-26T01:17:27;99122.16;;;14.95;47.33
29879;BME280;16752;53.364;-1.488;2023-03-26T01:20:22;99018.53;;;14.52;46.42
29879;BME280;16752;53.364;-1.488;2023-03-26T01:23:09;99125.34;;;15.73;45.63
29879;BME280;16752;53.364;-1.488;2023-03-26T01:26:22;99174.41;;;15.92;45.70
29879;BME280;16752;53.364;-1.488;2023-03-26T01:32:17;99167.94;;;16.03;45.16
29879;BME280;16752;53.364;-1.488;2023-03-26T01:38:26;99169.75;;;15.70;45.86
29879;BME280;16752;53.364;-1.488;2023-03-26T01:41:34;99074.13;;;15.34;45.18
29879;BME280;16752;53.364;-1.488;2023-03-26T01:44:49;99034.19;;;15.04;45.19
29879;BME280;16752;53.364;-1.488;2023-03-26T01:47:37;99135.50;;;15.36;46.07
29879;BME280;16752;53.364;-1.488;2023-03-26T01:50:23;99149.59;;;15.61;45.72
29879;BME280;16752;53.364;-1.488;2023-03-26T01:53:27;99067.59;;;14.95;46.28
29879;BME280;16752;53.364;-1.488;2023-03-26T02:02:35;99062.22;;;15.13;45.38
29879;BME280;16752;53.364;-1.488;2023-03-26T02:08:33;99007.94;;;14.86;45.03
29879;BME280;16752;53.364;-1.488;2023-03-26T02:11:20;99154.66;;;15.54;45.57
29879;BME280;16752;53.364;-1.488;2023-03-26T02:14:06;98986.72;;;14.12;46.57
29879;BME280;16752;53.364;-1.488;2023-03-26T02:16:51;99131.84;;;15.37;45.73
29879;BME280;16752;53.364;-1.488;2023-03-26T02:19:38;99109.53;;;15.07;46.47
29879;BME280;16752;53.364;-1.488;2023-03-26T02:22:25;99136.81;;;15.40;45.65
29879;BME280;16752;53.364;-1.488;2023-03-26T02:25:19;99033.16;;;14.81;45.57
29879;BME280;16752;53.364;-1.488;2023-03-26T02:28:04;99066.09;;;14.77;46.55
29879;BME280;16752;53.364;-1.488;2023-03-26T02:30:48;99020.31;;;14.94;45.39
29879;BME280;16752;53.364;-1.488;2023-03-26T02:33:32;99051.09;;;14.77;46.07
29879;BME280;16752;53.364;-1.488;2023-03-26T02:36:17;99144.19;;;15.62;45.20
29879;BME280;16752;53.364;-1.488;2023-03-26T02:39:06;99151.03;;;15.55;45.33
29879;BME280;16752;53.364;-1.488;2023-03-26T02:41:51;99005.22;;;14.62;45.30
29879;BME280;16752;53.364;-1.488;2023-03-26T02:44:35;99051.13;;;14.85;44.95
29879;BME280;16752;53.364;-1.488;2023-03-26T02:47:22;99144.09;;;15.46;45.17
29879;BME280;16752;53.364;-1.488;2023-03-26T02:50:06;98971.81;;;13.94;46.14
29879;BME280;16752;53.364;-1.488;2023-03-26T02:52:51;99063.56;;;14.41;46.18
29879;BME280;16752;53.364;-1.488;2023-03-26T02:55:36;98989.59;;;14.00;46.41
29879;BME280;16752;53.364;-1.488;2023-03-26T02:58:21;99044.31;;;14.75;45.72
29879;BME280;16752;53.364;-1.488;2023-03-26T03:01:08;99052.16;;;15.01;44.96
29879;BME280;16752;53.364;-1.488;2023-03-26T03:03:52;99136.78;;;15.23;45.70
29879;BME280;16752;53.364;-1.488;2023-03-26T03:06:37;99048.47;;;14.85;44.76
29879;BME280;16752;53.364;-1.488;2023-03-26T03:09:22;99136.97;;;15.30;45.04
29879;BME280;16752;53.364;-1.488;2023-03-26T03:12:07;98978.47;;;13.81;46.67
29879;BME280;16752;53.364;-1.488;2023-03-26T03:14:51;99048.97;;;14.89;44.98
29879;BME280;16752;53.364;-1.488;2023-03-26T03:17:36;99006.38;;;14.59;45.26
29879;BME280;16752;53.364;-1.488;2023-03-26T03:20:20;99029.69;;;14.80;44.95
29879;BME280;16752;53.364;-1.488;2023-03-26T03:23:05;98981.00;;;14.58;44.52
29879;BME280;16752;53.364;-1.488;2023-03-26T03:25:50;99038.41;;;14.81;44.87
29879;BME280;16752;53.364;-1.488;2023-03-26T03:28:36;99135.38;;;15.45;44.91
29879;BME280;16752;53.364;-1.488;2023-03-26T03:31:20;98980.84;;;13.92;45.80
29879;BME280;16752;53.364;-1.488;2023-03-26T03:34:05;99082.16;;;14.65;45.47
29879;BME280;16752;53.364;-1.488;2023-03-26T03:36:49;99072.59;;;14.98;44.80
29879;BME280;16752;53.364;-1.488;2023-03-26T03:39:34;99136.16;;;15.38;44.64
29879;BME280;16752;53.364;-1.488;2023-03-26T03:42:18;99047.31;;;14.88;44.49
29879;BME280;16752;53.364;-1.488;2023-03-26T03:45:03;99078.47;;;14.84;45.04
29879;BME280;16752;53.364;-1.488;2023-03-26T03:47:49;98987.22;;;14.49;44.42
29879;BME280;16752;53.364;-1.488;2023-03-26T03:50:33;99048.72;;;14.66;44.62
29879;BME280;16752;53.364;-1.488;2023-03-26T03:53:18;99080.25;;;14.76;45.37
29879;BME280;16752;53.364;-1.488;2023-03-26T03:56:03;99145.69;;;15.22;44.92
29879;BME280;16752;53.364;-1.488;2023-03-26T03:58:47;99071.94;;;14.54;45.75
29879;BME280;16752;53.364;-1.488;2023-03-26T04:01:31;99097.84;;;14.41;45.91
29879;BME280;16752;53.364;-1.488;2023-03-26T04:04:20;99143.31;;;13.99;47.64
29879;BME280;16752;53.364;-1.488;2023-03-26T04:07:24;99047.94;;;14.40;45.32
29879;BME280;16752;53.364;-1.488;2023-03-26T04:10:11;99075.31;;;14.21;45.42
29879;BME280;16752;53.364;-1.488;2023-03-26T04:13:00;99100.19;;;14.44;45.16
29879;BME280;16752;53.364;-1.488;2023-03-26T04:15:44;99091.47;;;14.52;44.64
29879;BME280;16752;53.364;-1.488;2023-03-26T04:18:29;99059.34;;;14.48;44.45
29879;BME280;16752;53.364;-1.488;2023-03-26T04:21:15;99152.88;;;15.04;45.02
29879;BME280;16752;53.364;-1.488;2023-03-26T04:24:00;99092.16;;;14.96;44.04
29879;BME280;16752;53.364;-1.488;2023-03-26T04:26:45;99059.50;;;14.47;44.72
29879;BME280;16752;53.364;-1.488;2023-03-26T04:29:34;99038.31;;;14.56;44.04
29879;BME280;16752;53.364;-1.488;2023-03-26T04:32:28;98997.63;;;14.25;44.01
29879;BME280;16752;53.364;-1.488;2023-03-26T04:35:14;99010.72;;;14.43;43.94
29879;BME280;16752;53.364;-1.488;2023-03-26T04:38:01;99066.53;;;14.72;43.84
29879;BME280;16752;53.364;-1.488;2023-03-26T04:40:54;99033.34;;;14.19;44.50
29879;BME280;16752;53.364;-1.488;2023-03-26T04:43:43;99048.59;;;14.42;43.96
29879;BME280;16752;53.364;-1.488;2023-03-26T04:46:30;99095.84;;;14.69;44.01
29879;BME280;16752;53.364;-1.488;2023-03-26T04:49:18;99016.94;;;13.56;45.72
29879;BME280;16752;53.364;-1.488;2023-03-26T04:52:02;99065.81;;;14.28;44.55
29879;BME280;16752;53.364;-1.488;2023-03-26T04:54:47;99064.81;;;14.29;43.76
29879;BME280;16752;53.364;-1.488;2023-03-26T04:57:34;99013.44;;;14.25;43.05
29879;BME280;16752;53.364;-1.488;2023-03-26T05:00:20;99109.44;;;14.30;44.57
29879;BME280;16752;53.364;-1.488;2023-03-26T05:03:08;99055.06;;;14.21;43.73
29879;BME280;16752;53.364;-1.488;2023-03-26T05:05:53;99012.16;;;14.03;42.75
29879;BME280;16752;53.364;-1.488;2023-03-26T05:08:37;99176.25;;;14.99;42.87
29879;BME280;16752;53.364;-1.488;2023-03-26T05:11:24;99177.06;;;14.65;43.43
29879;BME280;16752;53.364;-1.488;2023-03-26T05:14:11;99170.34;;;14.45;43.25
29879;BME280;16752;53.364;-1.488;2023-03-26T05:16:56;99038.50;;;13.77;42.55
29879;BME280;16752;53.364;-1.488;2023-03-26T05:19:40;99067.16;;;13.44;43.76
29879;BME280;16752;53.364;-1.488;2023-03-26T05:22:29;99129.22;;;14.08;42.67
29879;BME280;16752;53.364;-1.488;2023-03-26T05:25:19;99044.53;;;13.95;41.89
29879;BME280;16752;53.364;-1.488;2023-03-26T05:28:10;99173.44;;;14.66;42.21
29879;BME280;16752;53.364;-1.488;2023-03-26T05:30:58;99052.59;;;13.68;43.00
29879;BME280;16752;53.364;-1.488;2023-03-26T05:33:43;99061.72;;;13.64;43.48
29879;BME280;16752;53.364;-1.488;2023-03-26T05:36:28;99127.47;;;14.17;42.74
29879;BME280;16752;53.364;-1.488;2023-03-26T05:39:12;99052.09;;;13.01;44.75
29879;BME280;16752;53.364;-1.488;2023-03-26T05:41:57;99221.91;;;14.74;43.27
29879;BME280;16752;53.364;-1.488;2023-03-26T05:44:41;99163.78;;;14.49;42.95
29879;BME280;16752;53.364;-1.488;2023-03-26T05:47:26;99165.72;;;14.03;43.70
29879;BME280;16752;53.364;-1.488;2023-03-26T05:50:11;99194.13;;;14.35;43.56
29879;BME280;16752;53.364;-1.488;2023-03-26T05:52:55;99189.78;;;14.08;44.36
29879;BME280;16752;53.364;-1.488;2023-03-26T05:55:39;99168.97;;;13.80;44.62
29879;BME280;16752;53.364;-1.488;2023-03-26T05:58:27;99190.03;;;13.97;44.22
29879;BME280;16752;53.364;-1.488;2023-03-26T06:01:12;99152.72;;;13.84;43.97
29879;BME280;16752;53.364;-1.488;2023-03-26T06:03:59;99217.03;;;14.17;43.18
29879;BME280;16752;53.364;-1.488;2023-03-26T06:06:44;99219.28;;;13.94;44.31
29879;BME280;16752;53.364;-1.488;2023-03-26T06:09:34;99156.31;;;13.65;43.39
29879;BME280;16752;53.364;-1.488;2023-03-26T06:12:20;99109.41;;;13.61;43.20
29879;BME280;16752;53.364;-1.488;2023-03-26T06:15:05;99212.13;;;14.04;43.97
29879;BME280;16752;53.364;-1.488;2023-03-26T06:17:50;99250.75;;;14.49;42.63
29879;BME280;16752;53.364;-1.488;2023-03-26T06:20:35;99116.41;;;13.70;42.60
29879;BME280;16752;53.364;-1.488;2023-03-26T06:23:21;99121.88;;;13.76;42.46
29879;BME280;16752;53.364;-1.488;2023-03-26T06:26:06;99187.91;;;14.01;42.93
29879;BME280;16752;53.364;-1.488;2023-03-26T06:28:49;99205.72;;;14.25;42.89
29879;BME280;16752;53.364;-1.488;2023-03-26T06:31:36;99247.31;;;13.68;44.38
29879;BME280;16752;53.364;-1.488;2023-03-26T06:34:22;99222.75;;;13.95;42.71
29879;BME280;16752;53.364;-1.488;2023-03-26T06:37:06;99207.63;;;14.15;41.71
29879;BME280;16752;53.364;-1.488;2023-03-26T06:39:50;99282.50;;;14.48;42.34
29879;BME280;16752;53.364;-1.488;2023-03-26T06:42:34;99221.31;;;14.00;42.72
29879;BME280;16752;53.364;-1.488;2023-03-26T06:45:18;99220.78;;;14.15;41.63
29879;BME280;16752;53.364;-1.488;2023-03-26T06:48:05;99152.03;;;13.19;42.33
29879;BME280;16752;53.364;-1.488;2023-03-26T06:50:49;99285.66;;;14.16;42.78
29879;BME280;16752;53.364;-1.488;2023-03-26T06:53:35;99267.81;;;14.27;42.20
29879;BME280;16752;53.364;-1.488;2023-03-26T06:56:19;99242.25;;;14.20;41.83
29879;BME280;16752;53.364;-1.488;2023-03-26T06:59:03;99322.03;;;14.65;41.00
29879;BME280;16752;53.364;-1.488;2023-03-26T07:01:49;99227.72;;;13.98;42.12
29879;BME280;16752;53.364;-1.488;2023-03-26T07:04:34;99340.31;;;14.85;40.58
29879;BME280;16752;53.364;-1.488;2023-03-26T07:07:18;99242.31;;;14.10;41.40
29879;BME280;16752;53.364;-1.488;2023-03-26T07:10:05;99274.88;;;14.27;41.17
29879;BME280;16752;53.364;-1.488;2023-03-26T07:12:49;99309.00;;;14.64;40.45
29879;BME280;16752;53.364;-1.488;2023-03-26T07:15:33;99306.06;;;14.49;40.50
29879;BME280;16752;53.364;-1.488;2023-03-26T07:18:17;99224.00;;;13.73;41.58
29879;BME280;16752;53.364;-1.488;2023-03-26T07:21:01;99249.31;;;14.19;41.13
29879;BME280;16752;53.364;-1.488;2023-03-26T07:23:46;99301.25;;;13.82;41.62
29879;BME280;16752;53.364;-1.488;2023-03-26T07:26:54;99353.81;;;14.82;40.55
29879;BME280;16752;53.364;-1.488;2023-03-26T07:33:02;99370.84;;;15.13;40.10
29879;BME280;16752;53.364;-1.488;2023-03-26T07:35:56;99340.84;;;14.88;39.71
29879;BME280;16752;53.364;-1.488;2023-03-26T07:41:58;99387.25;;;14.99;40.65
29879;BME280;16752;53.364;-1.488;2023-03-26T07:44:55;99383.94;;;14.61;40.76
29879;BME280;16752;53.364;-1.488;2023-03-26T07:47:41;99401.03;;;14.93;39.87
29879;BME280;16752;53.364;-1.488;2023-03-26T07:50:28;99287.38;;;14.43;39.56
29879;BME280;16752;53.364;-1.488;2023-03-26T07:53:14;99329.31;;;14.89;38.81
29879;BME280;16752;53.364;-1.488;2023-03-26T07:58:58;99333.81;;;14.53;39.35
29879;BME280;16752;53.364;-1.488;2023-03-26T08:04:58;99437.66;;;15.40;38.23
29879;BME280;16752;53.364;-1.488;2023-03-26T08:11:09;99445.47;;;15.23;38.46
29879;BME280;16752;53.364;-1.488;2023-03-26T08:17:15;99405.03;;;15.41;37.49
29879;BME280;16752;53.364;-1.488;2023-03-26T08:23:04;99310.97;;;14.62;37.66
29879;BME280;16752;53.364;-1.488;2023-03-26T08:26:12;99300.28;;;14.63;37.75
29879;BME280;16752;53.364;-1.488;2023-03-26T08:29:06;99467.25;;;14.17;39.77
29879;BME280;16752;53.364;-1.488;2023-03-26T08:31:53;99404.06;;;15.42;37.62
29879;BME280;16752;53.364;-1.488;2023-03-26T08:34:40;99423.94;;;14.92;38.64
29879;BME280;16752;53.364;-1.488;2023-03-26T08:37:25;99343.50;;;15.14;37.11
29879;BME280;16752;53.364;-1.488;2023-03-26T08:40:11;99391.91;;;15.57;37.11
29879;BME280;16752;53.364;-1.488;2023-03-26T08:49:48;99506.75;;;16.31;36.21
29879;BME280;16752;53.364;-1.488;2023-03-26T08:59:18;99527.25;;;16.37;36.27
29879;BME280;16752;53.364;-1.488;2023-03-26T09:27:07;99556.16;;;17.23;32.48
29879;BME280;16752;53.364;-1.488;2023-03-26T09:36:28;99542.63;;;17.58;32.19
29879;BME280;16752;53.364;-1.488;2023-03-26T09:43:06;99443.31;;;15.63;32.29
29879;BME280;16752;53.364;-1.488;2023-03-26T09:49:27;99467.78;;;16.33;31.90
29879;BME280;16752;53.364;-1.488;2023-03-26T10:01:45;99535.66;;;17.25;32.18
29879;BME280;16752;53.364;-1.488;2023-03-26T10:05:28;99618.28;;;18.18;31.42
29879;BME280;16752;53.364;-1.488;2023-03-26T10:11:22;99627.22;;;17.01;31.42
29879;BME280;16752;53.364;-1.488;2023-03-26T10:14:31;99624.09;;;17.97;30.01
29879;BME280;16752;53.364;-1.488;2023-03-26T10:23:56;99657.50;;;19.18;31.12
29879;BME280;16752;53.364;-1.488;2023-03-26T10:27:07;99658.53;;;20.32;26.77
29879;BME280;16752;53.364;-1.488;2023-03-26T10:33:21;99671.34;;;19.68;25.38
29879;BME280;16752;53.364;-1.488;2023-03-26T11:00:25;99710.59;;;18.22;28.70
29879;BME280;16752;53.364;-1.488;2023-03-26T11:03:49;99732.25;;;17.93;30.66
29879;BME280;16752;53.364;-1.488;2023-03-26T11:10:23;99744.72;;;18.17;29.46
29879;BME280;16752;53.364;-1.488;2023-03-26T11:16:03;99753.03;;;18.47;31.07
29879;BME280;16752;53.364;-1.488;2023-03-26T11:19:15;99699.66;;;18.17;30.95
29879;BME280;16752;53.364;-1.488;2023-03-26T11:22:14;99758.53;;;19.33;28.27
29879;BME280;16752;53.364;-1.488;2023-03-26T11:34:25;99752.38;;;17.62;30.59
29879;BME280;16752;53.364;-1.488;2023-03-26T11:40:24;99710.75;;;18.21;29.21
29879;BME280;16752;53.364;-1.488;2023-03-26T11:43:12;99769.09;;;18.53;29.56
29879;BME280;16752;53.364;-1.488;2023-03-26T11:45:58;99744.25;;;17.63;31.14
29879;BME280;16752;53.364;-1.488;2023-03-26T11:48:58;99818.88;;;17.93;30.85
29879;BME280;16752;53.364;-1.488;2023-03-26T11:51:46;99755.66;;;18.06;30.42
29879;BME280;16752;53.364;-1.488;2023-03-26T11:54:31;99764.50;;;17.73;30.17
29879;BME280;16752;53.364;-1.488;2023-03-26T11:57:20;99788.56;;;17.53;31.57
29879;BME280;16752;53.364;-1.488;2023-03-26T12:00:07;99767.41;;;18.60;30.00
29879;BME280;16752;53.364;-1.488;2023-03-26T12:03:00;99768.19;;;17.80;30.32
29879;BME280;16752;53.364;-1.488;2023-03-26T12:05:50;99784.53;;;17.75;31.06
29879;BME280;16752;53.364;-1.488;2023-03-26T12:08:38;99776.81;;;17.48;30.81
29879;BME280;16752;53.364;-1.488;2023-03-26T12:11:25;99719.13;;;17.67;29.87
29879;BME280;16752;53.364;-1.488;2023-03-26T12:14:23;99777.66;;;17.56;30.42
29879;BME280;16752;53.364;-1.488;2023-03-26T12:23:40;99839.25;;;18.91;31.20
29879;BME280;16752;53.364;-1.488;2023-03-26T12:26:40;99809.72;;;19.66;27.84
29879;BME280;16752;53.364;-1.488;2023-03-26T12:29:24;99797.25;;;19.67;27.09
29879;BME280;16752;53.364;-1.488;2023-03-26T12:32:12;99837.72;;;19.21;28.82
29879;BME280;16752;53.364;-1.488;2023-03-26T12:34:58;99865.38;;;20.30;25.86
29879;BME280;16752;53.364;-1.488;2023-03-26T12:37:46;99817.38;;;19.61;26.91
29879;BME280;16752;53.364;-1.488;2023-03-26T12:40:35;99896.88;;;19.79;26.31
29879;BME280;16752;53.364;-1.488;2023-03-26T12:43:35;99847.28;;;19.47;25.39
29879;BME280;16752;53.364;-1.488;2023-03-26T12:46:31;99861.47;;;18.99;26.36
29879;BME280;16752;53.364;-1.488;2023-03-26T12:49:16;99937.16;;;19.11;27.41
29879;BME280;16752;53.364;-1.488;2023-03-26T12:57:55;99953.09;;;18.02;29.48
29879;BME280;16752;53.364;-1.488;2023-03-26T13:00:47;99949.88;;;18.24;28.85
29879;BME280;16752;53.364;-1.488;2023-03-26T13:07:15;99837.50;;;16.18;31.96
29879;BME280;16752;53.364;-1.488;2023-03-26T13:23:11;99898.19;;;16.91;31.82
29879;BME280;16752;53.364;-1.488;2023-03-26T13:29:24;99952.03;;;16.09;33.37
29879;BME280;16752;53.364;-1.488;2023-03-26T13:35:37;100006.00;;;17.06;32.81
29879;BME280;16752;53.364;-1.488;2023-03-26T13:38:44;99928.25;;;15.72;33.59
29879;BME280;16752;53.364;-1.488;2023-03-26T13:41:54;99953.84;;;16.08;32.40
29879;BME280;16752;53.364;-1.488;2023-03-26T13:48:11;99926.72;;;17.40;30.49
29879;BME280;16752;53.364;-1.488;2023-03-26T13:51:03;99995.06;;;17.63;31.23
29879;BME280;16752;53.364;-1.488;2023-03-26T13:54:08;99925.84;;;16.61;31.77
29879;BME280;16752;53.364;-1.488;2023-03-26T14:02:35;100024.25;;;17.27;31.55
29879;BME280;16752;53.364;-1.488;2023-03-26T14:05:29;99913.47;;;17.40;30.36
29879;BME280;16752;53.364;-1.488;2023-03-26T14:08:34;100036.63;;;18.06;30.29
29879;BME280;16752;53.364;-1.488;2023-03-26T14:17:41;100051.31;;;17.57;31.55
29879;BME280;16752;53.364;-1.488;2023-03-26T14:23:51;100032.56;;;16.69;32.02
29879;BME280;16752;53.364;-1.488;2023-03-26T14:26:53;100002.38;;;16.62;31.57
29879;BME280;16752;53.364;-1.488;2023-03-26T14:36:19;100056.09;;;15.88;34.15
29879;BME280;16752;53.364;-1.488;2023-03-26T14:39:24;100066.06;;;16.51;32.55
29879;BME280;16752;53.364;-1.488;2023-03-26T14:51:31;100122.81;;;16.57;33.26
29879;BME280;16752;53.364;-1.488;2023-03-26T14:54:20;100112.88;;;16.78;33.52
29879;BME280;16752;53.364;-1.488;2023-03-26T14:57:28;100126.88;;;17.16;32.01
29879;BME280;16752;53.364;-1.488;2023-03-26T15:06:49;100069.84;;;16.39;33.54
29879;BME280;16752;53.364;-1.488;2023-03-26T15:22:27;100214.44;;;16.19;36.25
29879;BME280;16752;53.364;-1.488;2023-03-26T15:38:25;100164.47;;;15.39;39.10
29879;BME280;16752;53.364;-1.488;2023-03-26T15:41:15;100234.59;;;15.62;39.45
29879;BME280;16752;53.364;-1.488;2023-03-26T15:44:09;100218.75;;;15.81;38.58
29879;BME280;16752;53.364;-1.488;2023-03-26T15:50:22;100154.69;;;15.01;39.45
29879;BME280;16752;53.364;-1.488;2023-03-26T15:56:29;100202.00;;;15.52;37.96
29879;BME280;16752;53.364;-1.488;2023-03-26T16:02:25;100230.72;;;15.66;36.01
29879;BME280;16752;53.364;-1.488;2023-03-26T16:08:32;100273.94;;;15.65;35.47
29879;BME280;16752;53.364;-1.488;2023-03-26T16:17:21;100237.53;;;15.38;34.85
29879;BME280;16752;53.364;-1.488;2023-03-26T16:20:21;100291.22;;;15.58;35.24
29879;BME280;16752;53.364;-1.488;2023-03-26T16:23:33;100303.44;;;15.89;34.22
29879;BME280;16752;53.364;-1.488;2023-03-26T16:26:35;100293.78;;;14.98;35.32
29879;BME280;16752;53.364;-1.488;2023-03-26T16:52:28;100315.75;;;15.09;34.82
29879;BME280;16752;53.364;-1.488;2023-03-26T17:01:58;100363.84;;;15.64;33.23
29879;BME280;16752;53.364;-1.488;2023-03-26T17:04:54;100372.91;;;15.71;33.45
29879;BME280;16752;53.364;-1.488;2023-03-26T17:08:00;100235.41;;;14.92;32.81
29879;BME280;16752;53.364;-1.488;2023-03-26T17:24:10;100433.09;;;14.07;38.83
29879;BME280;16752;53.364;-1.488;2023-03-26T17:48:15;100381.72;;;14.13;37.62
29879;BME280;16752;53.364;-1.488;2023-03-26T17:51:49;100483.47;;;15.02;36.71
29879;BME280;16752;53.364;-1.488;2023-03-26T18:19:52;100446.59;;;14.36;35.90
29879;BME280;16752;53.364;-1.488;2023-03-26T18:22:37;100545.97;;;14.90;36.28
29879;BME280;16752;53.364;-1.488;2023-03-26T18:28:50;100480.38;;;14.20;36.63
29879;BME280;16752;53.364;-1.488;2023-03-26T18:31:39;100521.09;;;14.60;36.75
29879;BME280;16752;53.364;-1.488;2023-03-26T18:34:27;100529.09;;;14.81;36.64
29879;BME280;16752;53.364;-1.488;2023-03-26T18:37:37;100382.94;;;13.86;36.91
29879;BME280;16752;53.364;-1.488;2023-03-26T18:40:24;100542.63;;;14.88;36.25
29879;BME280;16752;53.364;-1.488;2023-03-26T18:43:17;100546.25;;;14.76;36.97
29879;BME280;16752;53.364;-1.488;2023-03-26T18:46:02;100480.03;;;14.35;36.59
29879;BME280;16752;53.364;-1.488;2023-03-26T18:48:50;100487.44;;;14.08;36.51
29879;BME280;16752;53.364;-1.488;2023-03-26T18:51:38;100570.09;;;14.85;35.97
29879;BME280;16752;53.364;-1.488;2023-03-26T18:54:32;100414.22;;;13.68;36.51
29879;BME280;16752;53.364;-1.488;2023-03-26T18:57:41;100543.53;;;14.55;36.03
29879;BME280;16752;53.364;-1.488;2023-03-26T19:00:38;100541.72;;;14.22;36.67
29879;BME280;16752;53.364;-1.488;2023-03-26T19:03:50;100596.94;;;14.68;37.04
29879;BME280;16752;53.364;-1.488;2023-03-26T19:06:45;100515.59;;;13.96;36.99
29879;BME280;16752;53.364;-1.488;2023-03-26T19:09:44;100449.28;;;13.69;36.52
29879;BME280;16752;53.364;-1.488;2023-03-26T19:13:22;100517.06;;;14.12;36.95
29879;BME280;16752;53.364;-1.488;2023-03-26T19:24:23;100569.03;;;14.32;37.37
29879;BME280;16752;53.364;-1.488;2023-03-26T19:27:29;100544.47;;;14.20;37.37
29879;BME280;16752;53.364;-1.488;2023-03-26T19:30:38;100553.44;;;14.29;37.38
29879;BME280;16752;53.364;-1.488;2023-03-26T19:34:11;100583.06;;;14.44;36.77
29879;BME280;16752;53.364;-1.488;2023-03-26T19:43:17;100503.59;;;13.70;37.18
29879;BME280;16752;53.364;-1.488;2023-03-26T19:46:02;100528.75;;;13.74;37.26
29879;BME280;16752;53.364;-1.488;2023-03-26T19:52:10;100664.88;;;14.42;36.92
29879;BME280;16752;53.364;-1.488;2023-03-26T19:55:29;100670.19;;;14.53;35.72
29879;BME280;16752;53.364;-1.488;2023-03-26T19:58:46;100514.44;;;13.54;35.28
29879;BME280;16752;53.364;-1.488;2023-03-26T20:01:34;100585.03;;;14.06;34.93
29879;BME280;16752;53.364;-1.488;2023-03-26T20:04:22;100587.66;;;14.06;34.60
29879;BME280;16752;53.364;-1.488;2023-03-26T20:07:29;100683.50;;;14.63;34.45
29879;BME280;16752;53.364;-1.488;2023-03-26T20:10:18;100690.78;;;14.48;34.87
29879;BME280;16752;53.364;-1.488;2023-03-26T20:13:26;100606.00;;;13.62;35.15
29879;BME280;16752;53.364;-1.488;2023-03-26T20:16:26;100704.34;;;14.20;35.22
29879;BME280;16752;53.364;-1.488;2023-03-26T20:19:35;100565.84;;;13.71;34.60
29879;BME280;16752;53.364;-1.488;2023-03-26T20:22:28;100708.88;;;14.53;33.85
29879;BME280;16752;53.364;-1.488;2023-03-26T20:30:41;100639.56;;;13.71;33.98
29879;BME280;16752;53.364;-1.488;2023-03-26T20:33:26;100631.34;;;13.52;32.87
29879;BME280;16752;53.364;-1.488;2023-03-26T20:36:13;100609.94;;;13.56;32.23
29879;BME280;16752;53.364;-1.488;2023-03-26T20:39:11;100635.91;;;13.00;33.21
29879;BME280;16752;53.364;-1.488;2023-03-26T20:42:28;100568.28;;;12.66;33.32
29879;BME280;16752;53.364;-1.488;2023-03-26T20:45:21;100737.53;;;14.22;32.96
29879;BME280;16752;53.364;-1.488;2023-03-26T20:48:19;100579.97;;;13.22;33.45
29879;BME280;16752;53.364;-1.488;2023-03-26T20:52:16;100749.09;;;14.08;33.81
29879;BME280;16752;53.364;-1.488;2023-03-26T20:58:20;100758.09;;;14.41;34.14
29879;BME280;16752;53.364;-1.488;2023-03-26T21:01:23;100659.56;;;13.00;34.48
29879;BME280;16752;53.364;-1.488;2023-03-26T21:04:13;100572.97;;;13.10;32.70
29879;BME280;16752;53.364;-1.488;2023-03-26T21:08:12;100599.16;;;13.11;33.60
29879;BME280;16752;53.364;-1.488;2023-03-26T21:20:37;100697.13;;;13.52;33.34
29879;BME280;16752;53.364;-1.488;2023-03-26T21:35:57;100801.41;;;14.02;34.38
29879;BME280;16752;53.364;-1.488;2023-03-26T21:38:44;100657.72;;;12.90;34.70
29879;BME280;16752;53.364;-1.488;2023-03-26T21:41:48;100657.03;;;12.62;35.09
29879;BME280;16752;53.364;-1.488;2023-03-26T21:44:40;100717.31;;;13.27;34.20
29879;BME280;16752;53.364;-1.488;2023-03-26T21:47:32;100723.84;;;13.22;35.06
29879;BME280;16752;53.364;-1.488;2023-03-26T21:50:21;100654.13;;;12.91;34.77
29879;BME280;16752;53.364;-1.488;2023-03-26T21:53:15;100819.28;;;13.11;36.35